Time;durP1;ratioP1;P1;durP2;ratioP2;P2;SDS_P1;SDS_P2;PMS_P1;PMS_P2;Temp;Humidity;BMP_temperature;BMP_pressure;BME280_temperature;BME280_humidity;BME280_pressure;Samples;Min_cycle;Max_cycle;Signal;HPM_P1;HPM_P2
2023/01/19 00:01:41;;;;;;;12.05;1.50;;;;;;;;;;5093576;28;20494;-73
2023/01/19 00:04:07;;;;;;;10.85;1.40;;;;;;;;;;5098312;28;20041;-73
2023/01/19 00:06:33;;;;;;;11.02;1.20;;;;;;;;;;5093746;28;20051;-73
2023/01/19 00:08:59;;;;;;;6.10;1.23;;;;;;;;;;5097250;28;20119;-73
2023/01/19 00:11:25;;;;;;;7.38;1.40;;;;;;;;;;5094877;28;20506;-73
2023/01/19 00:13:52;;;;;;;16.77;1.90;;;;;;;;;;5091231;28;20047;-73
2023/01/19 00:16:20;;;;;;;19.15;1.77;;;;;;;;;;5080759;28;20043;-73
2023/01/19 00:19:05;;;;;;;10.63;1.17;;;;;;;;;;5099136;28;20048;-73
2023/01/19 00:21:31;;;;;;;7.72;1.10;;;;;;;;;;5092727;28;20048;-73
2023/01/19 00:23:57;;;;;;;12.38;1.70;;;;;;;;;;5093372;28;20047;-73
2023/01/19 00:26:23;;;;;;;11.68;2.05;;;;;;;;;;5091947;28;20043;-73
2023/01/19 00:28:50;;;;;;;13.80;2.83;;;;;;;;;;5091030;28;20131;-73
2023/01/19 00:31:19;;;;;;;13.38;1.60;;;;;;;;;;5094357;28;20124;-74
2023/01/19 00:33:47;;;;;;;11.75;2.03;;;;;;;;;;5091819;28;20043;-73
2023/01/19 00:36:13;;;;;;;11.63;1.50;;;;;;;;;;5090197;28;20392;-73
2023/01/19 00:38:40;;;;;;;14.40;1.92;;;;;;;;;;5091812;28;20051;-73
2023/01/19 00:41:06;;;;;;;13.88;1.80;;;;;;;;;;5088805;28;20044;-73
2023/01/19 00:43:32;;;;;;;12.48;1.75;;;;;;;;;;5096529;28;20055;-73
2023/01/19 00:45:59;;;;;;;11.30;1.10;;;;;;;;;;5096146;28;20031;-73
2023/01/19 00:48:25;;;;;;;10.88;1.20;;;;;;;;;;5095883;28;20048;-73
2023/01/19 00:50:51;;;;;;;13.43;1.70;;;;;;;;;;5073657;28;20073;-73
2023/01/19 00:53:17;;;;;;;9.90;0.95;;;;;;;;;;5096510;28;20762;-73
2023/01/19 00:55:43;;;;;;;14.18;1.10;;;;;;;;;;5097264;28;20050;-73
2023/01/19 00:58:09;;;;;;;18.92;1.80;;;;;;;;;;5090211;28;20050;-73
2023/01/19 01:00:36;;;;;;;11.07;1.25;;;;;;;;;;5090952;28;20039;-73
2023/01/19 01:03:02;;;;;;;9.38;1.15;;;;;;;;;;5097479;28;20696;-73
2023/01/19 01:05:28;;;;;;;12.43;1.30;;;;;;;;;;5077353;28;20129;-73
2023/01/19 01:07:54;;;;;;;16.27;1.52;;;;;;;;;;5097028;28;20050;-73
2023/01/19 01:10:22;;;;;;;22.05;2.08;;;;;;;;;;5092189;28;20048;-73
2023/01/19 01:12:48;;;;;;;17.52;1.83;;;;;;;;;;5081369;28;20055;-73
2023/01/19 01:15:16;;;;;;;15.35;1.63;;;;;;;;;;5085692;28;20104;-73
2023/01/19 01:17:48;;;;;;;14.63;1.77;;;;;;;;;;5078140;28;20741;-73
2023/01/19 01:20:20;;;;;;;17.55;2.00;;;;;;;;;;5084326;28;20062;-73
2023/01/19 01:22:47;;;;;;;13.77;1.60;;;;;;;;;;5094956;28;20406;-73
2023/01/19 01:25:15;;;;;;;11.27;1.60;;;;;;;;;;5099639;28;20058;-73
2023/01/19 01:27:42;;;;;;;17.30;2.58;;;;;;;;;;5092827;28;20106;-73
2023/01/19 01:30:09;;;;;;;19.42;2.30;;;;;;;;;;5100535;28;20200;-73
2023/01/19 01:32:35;;;;;;;15.25;1.95;;;;;;;;;;5094701;28;21333;-73
2023/01/19 01:35:01;;;;;;;10.32;1.50;;;;;;;;;;5095953;28;20044;-73
2023/01/19 01:37:28;;;;;;;9.73;1.38;;;;;;;;;;5099794;28;20044;-73
2023/01/19 01:39:54;;;;;;;14.50;1.40;;;;;;;;;;5093339;28;20048;-73
2023/01/19 01:42:24;;;;;;;10.07;1.50;;;;;;;;;;5096598;28;20051;-73
2023/01/19 01:44:52;;;;;;;7.85;1.27;;;;;;;;;;5101466;28;20054;-73
2023/01/19 01:47:23;;;;;;;27.90;2.00;;;;;;;;;;5094027;28;20046;-73
2023/01/19 01:49:50;;;;;;;14.38;1.50;;;;;;;;;;5100132;28;20052;-73
2023/01/19 01:52:18;;;;;;;17.35;1.73;;;;;;;;;;5094308;28;20052;-73
2023/01/19 01:54:44;;;;;;;11.35;1.60;;;;;;;;;;5098191;28;20047;-73
2023/01/19 01:57:11;;;;;;;10.50;1.23;;;;;;;;;;5100195;28;20035;-74
2023/01/19 01:59:40;;;;;;;15.48;2.25;;;;;;;;;;5099284;28;20110;-73
2023/01/19 02:04:55;;;;;;;11.05;1.42;;;;;;;;;;5100420;28;20052;-73
2023/01/19 02:15:44;;;;;;;8.95;1.05;;;;;;;;;;5096055;28;20083;-73
2023/01/19 02:18:10;;;;;;;7.20;0.90;;;;;;;;;;5105645;28;20498;-73
2023/01/19 02:20:37;;;;;;;3.88;0.90;;;;;;;;;;5096181;28;22185;-73
2023/01/19 02:23:06;;;;;;;10.95;1.50;;;;;;;;;;5099152;28;20050;-73
2023/01/19 02:25:32;;;;;;;10.35;0.80;;;;;;;;;;5099773;28;20123;-73
2023/01/19 02:27:59;;;;;;;4.57;0.90;;;;;;;;;;5100402;28;20051;-73
2023/01/19 02:30:26;;;;;;;5.85;1.13;;;;;;;;;;5099545;28;20430;-73
2023/01/19 02:32:52;;;;;;;10.98;1.00;;;;;;;;;;5094777;28;20052;-73
2023/01/19 02:35:19;;;;;;;7.78;1.83;;;;;;;;;;5100771;28;20043;-73
2023/01/19 02:37:46;;;;;;;11.65;1.50;;;;;;;;;;5095003;28;20055;-73
2023/01/19 02:40:13;;;;;;;10.38;1.08;;;;;;;;;;5102419;28;20142;-73
2023/01/19 02:42:43;;;;;;;10.38;1.15;;;;;;;;;;5091840;28;20143;-73
2023/01/19 02:45:11;;;;;;;10.82;1.20;;;;;;;;;;5101467;27;20047;-73
2023/01/19 02:47:39;;;;;;;7.20;1.00;;;;;;;;;;5100411;27;20228;-73
2023/01/19 02:50:05;;;;;;;6.47;0.90;;;;;;;;;;5095733;28;20693;-73
2023/01/19 02:52:32;;;;;;;9.85;2.13;;;;;;;;;;5101300;28;20042;-73
2023/01/19 02:55:17;;;;;;;7.00;1.25;;;;;;;;;;5094265;28;20641;-73
2023/01/19 02:57:55;;;;;;;11.93;1.58;;;;;;;;;;5092078;28;20051;-73
2023/01/19 03:00:28;;;;;;;5.43;1.15;;;;;;;;;;5094713;28;20046;-73
2023/01/19 03:03:01;;;;;;;6.85;0.80;;;;;;;;;;5100643;28;20109;-73
2023/01/19 03:05:32;;;;;;;10.65;0.90;;;;;;;;;;5102281;28;20394;-73
2023/01/19 03:08:07;;;;;;;11.15;1.17;;;;;;;;;;5102741;28;20044;-73
2023/01/19 03:10:35;;;;;;;5.45;0.80;;;;;;;;;;5097693;28;20111;-73
2023/01/19 03:13:07;;;;;;;9.30;0.90;;;;;;;;;;5095961;28;20048;-73
2023/01/19 03:15:41;;;;;;;12.00;0.95;;;;;;;;;;5098849;28;20047;-73
2023/01/19 03:18:09;;;;;;;13.55;1.77;;;;;;;;;;5100438;28;20086;-73
2023/01/19 03:20:36;;;;;;;8.88;0.95;;;;;;;;;;5099737;28;20286;-73
2023/01/19 03:23:03;;;;;;;6.50;1.00;;;;;;;;;;5091513;28;20422;-73
2023/01/19 03:25:33;;;;;;;9.98;1.20;;;;;;;;;;5081223;28;20332;-73
2023/01/19 03:27:59;;;;;;;8.65;1.27;;;;;;;;;;5092304;28;20036;-73
2023/01/19 03:30:27;;;;;;;9.00;1.20;;;;;;;;;;5102068;27;20159;-73
2023/01/19 03:32:59;;;;;;;18.75;1.77;;;;;;;;;;5095081;27;20071;-73
2023/01/19 03:35:26;;;;;;;13.73;1.80;;;;;;;;;;5100993;28;20043;-73
2023/01/19 03:37:54;;;;;;;19.00;2.33;;;;;;;;;;5101810;28;20040;-72
2023/01/19 03:40:21;;;;;;;16.23;3.22;;;;;;;;;;5099409;28;20054;-73
2023/01/19 03:42:49;;;;;;;13.00;1.70;;;;;;;;;;5094492;28;20043;-73
2023/01/19 03:45:15;;;;;;;19.23;1.73;;;;;;;;;;5099442;28;20727;-73
2023/01/19 03:47:41;;;;;;;11.20;2.42;;;;;;;;;;5099584;28;20556;-73
2023/01/19 03:50:11;;;;;;;14.82;1.80;;;;;;;;;;5096706;28;20634;-73
2023/01/19 03:52:37;;;;;;;15.68;2.17;;;;;;;;;;5095506;28;20051;-73
2023/01/19 03:55:04;;;;;;;14.25;1.85;;;;;;;;;;5098949;27;20075;-73
2023/01/19 03:57:30;;;;;;;8.43;1.73;;;;;;;;;;5098293;27;20398;-73
2023/01/19 03:59:56;;;;;;;8.48;1.50;;;;;;;;;;5096826;28;20067;-73
2023/01/19 04:02:23;;;;;;;10.68;1.02;;;;;;;;;;5097827;28;20028;-72
2023/01/19 04:04:49;;;;;;;9.40;0.90;;;;;;;;;;5092671;28;20046;-73
2023/01/19 04:07:15;;;;;;;14.43;1.00;;;;;;;;;;5090766;28;20196;-73
2023/01/19 04:09:42;;;;;;;11.20;1.10;;;;;;;;;;5097222;28;20042;-73
2023/01/19 04:12:08;;;;;;;9.55;1.10;;;;;;;;;;5092400;28;20483;-73
2023/01/19 04:14:34;;;;;;;7.57;1.00;;;;;;;;;;5096617;28;20096;-73
2023/01/19 04:17:00;;;;;;;8.27;1.25;;;;;;;;;;5095806;28;20505;-72
2023/01/19 04:19:27;;;;;;;10.00;1.00;;;;;;;;;;5092602;28;20094;-73
2023/01/19 04:21:54;;;;;;;9.05;0.85;;;;;;;;;;5092000;28;20039;-73
2023/01/19 04:24:20;;;;;;;12.75;1.92;;;;;;;;;;5095600;28;20147;-73
2023/01/19 04:26:47;;;;;;;10.00;0.98;;;;;;;;;;5096631;28;20047;-72
2023/01/19 04:29:13;;;;;;;8.90;0.98;;;;;;;;;;5089930;28;20050;-73
2023/01/19 04:31:39;;;;;;;6.47;1.00;;;;;;;;;;5098050;28;20115;-72
2023/01/19 04:34:05;;;;;;;8.65;0.95;;;;;;;;;;5096556;28;20801;-72
2023/01/19 04:36:31;;;;;;;6.97;1.05;;;;;;;;;;5095506;28;20134;-73
2023/01/19 04:38:58;;;;;;;7.65;1.20;;;;;;;;;;5098451;28;20599;-72
2023/01/19 04:41:24;;;;;;;14.13;1.45;;;;;;;;;;5090740;28;20476;-72
2023/01/19 04:43:50;;;;;;;10.52;1.58;;;;;;;;;;5090411;28;20043;-72
2023/01/19 04:46:16;;;;;;;8.18;1.13;;;;;;;;;;5091609;28;20051;-72
2023/01/19 04:48:42;;;;;;;8.40;1.15;;;;;;;;;;5090774;28;20130;-72
2023/01/19 04:51:08;;;;;;;16.98;1.73;;;;;;;;;;5095731;28;20096;-72
2023/01/19 04:53:35;;;;;;;15.88;1.70;;;;;;;;;;5075911;28;20142;-72
2023/01/19 04:56:01;;;;;;;5.50;1.08;;;;;;;;;;5101204;28;20040;-72
2023/01/19 04:58:27;;;;;;;10.20;1.73;;;;;;;;;;5095152;27;20936;-72
2023/01/19 05:00:53;;;;;;;13.55;2.35;;;;;;;;;;5102099;27;20434;-72
2023/01/19 05:03:20;;;;;;;19.30;2.55;;;;;;;;;;5098259;27;20345;-72
2023/01/19 05:05:46;;;;;;;15.13;1.52;;;;;;;;;;5093843;28;20364;-72
2023/01/19 05:08:12;;;;;;;10.82;1.23;;;;;;;;;;5101048;28;20074;-72
2023/01/19 05:10:39;;;;;;;7.70;1.30;;;;;;;;;;5100968;28;20157;-72
2023/01/19 05:13:05;;;;;;;14.93;1.63;;;;;;;;;;5094643;28;20111;-72
2023/01/19 05:15:31;;;;;;;18.42;2.40;;;;;;;;;;5104425;28;20447;-72
2023/01/19 05:17:57;;;;;;;20.25;1.95;;;;;;;;;;5094887;28;20036;-73
2023/01/19 05:20:24;;;;;;;14.45;1.65;;;;;;;;;;5102153;28;20036;-73
2023/01/19 05:22:51;;;;;;;17.65;3.15;;;;;;;;;;5097433;28;20484;-72
2023/01/19 05:25:17;;;;;;;11.85;1.98;;;;;;;;;;5095933;28;20150;-72
2023/01/19 05:27:44;;;;;;;10.38;1.48;;;;;;;;;;5099656;28;20088;-73
2023/01/19 05:30:10;;;;;;;7.78;1.30;;;;;;;;;;5094687;28;20042;-73
2023/01/19 05:32:36;;;;;;;15.95;1.70;;;;;;;;;;5101228;28;20127;-73
2023/01/19 05:35:03;;;;;;;12.90;2.40;;;;;;;;;;5101792;28;20122;-72
2023/01/19 05:37:31;;;;;;;7.70;1.45;;;;;;;;;;5099354;27;20655;-73
2023/01/19 05:39:57;;;;;;;11.93;1.80;;;;;;;;;;5111934;27;20376;-72
2023/01/19 05:42:23;;;;;;;10.15;1.90;;;;;;;;;;5094900;28;20043;-73
2023/01/19 05:44:50;;;;;;;9.73;1.30;;;;;;;;;;5101804;28;20101;-73
2023/01/19 05:47:16;;;;;;;13.95;2.58;;;;;;;;;;5106100;28;20043;-73
2023/01/19 05:49:42;;;;;;;11.35;1.42;;;;;;;;;;5104352;28;20086;-73
2023/01/19 05:52:08;;;;;;;10.13;1.70;;;;;;;;;;5098105;28;20394;-72
2023/01/19 05:54:34;;;;;;;13.07;1.73;;;;;;;;;;5102571;27;20077;-74
2023/01/19 05:57:01;;;;;;;11.77;2.63;;;;;;;;;;5104150;28;20043;-73
2023/01/19 05:59:28;;;;;;;16.85;2.47;;;;;;;;;;5102849;28;20035;-72
2023/01/19 06:01:54;;;;;;;13.00;2.20;;;;;;;;;;5101719;28;20042;-72
2023/01/19 06:04:21;;;;;;;10.23;1.52;;;;;;;;;;5104090;28;20471;-71
2023/01/19 06:06:47;;;;;;;18.80;2.72;;;;;;;;;;5103268;27;20040;-72
2023/01/19 06:09:14;;;;;;;17.42;2.15;;;;;;;;;;5102776;27;20471;-72
2023/01/19 06:11:40;;;;;;;11.68;2.30;;;;;;;;;;5103062;28;20070;-72
2023/01/19 06:14:06;;;;;;;12.50;1.60;;;;;;;;;;5097857;28;20047;-72
2023/01/19 06:16:32;;;;;;;12.10;2.13;;;;;;;;;;5106878;28;20040;-72
2023/01/19 06:18:58;;;;;;;13.05;2.03;;;;;;;;;;5094561;28;20073;-72
2023/01/19 06:21:24;;;;;;;26.05;2.58;;;;;;;;;;5101175;28;20039;-72
2023/01/19 06:23:50;;;;;;;21.02;1.90;;;;;;;;;;5102748;28;20188;-73
2023/01/19 06:26:17;;;;;;;28.40;3.05;;;;;;;;;;5102352;27;20499;-71
2023/01/19 06:28:43;;;;;;;21.67;3.58;;;;;;;;;;5100909;28;20122;-72
2023/01/19 06:31:09;;;;;;;17.42;2.40;;;;;;;;;;5102236;28;20044;-72
2023/01/19 06:33:35;;;;;;;18.25;3.08;;;;;;;;;;5097894;28;20044;-72
2023/01/19 06:36:02;;;;;;;16.65;2.83;;;;;;;;;;5098731;28;20044;-72
2023/01/19 06:38:28;;;;;;;17.00;3.97;;;;;;;;;;5105891;28;20566;-72
2023/01/19 06:41:01;;;;;;;17.42;2.90;;;;;;;;;;5098661;28;20044;-71
2023/01/19 06:43:27;;;;;;;18.65;2.28;;;;;;;;;;5104232;28;20675;-73
2023/01/19 06:45:54;;;;;;;16.90;2.25;;;;;;;;;;5099792;28;20040;-72
2023/01/19 06:48:21;;;;;;;18.27;2.30;;;;;;;;;;5094557;28;20044;-72
2023/01/19 06:50:48;;;;;;;18.20;4.00;;;;;;;;;;5103411;27;20047;-72
2023/01/19 06:53:15;;;;;;;28.25;2.25;;;;;;;;;;5102242;28;20128;-72
2023/01/19 06:55:42;;;;;;;17.30;2.22;;;;;;;;;;5099782;28;20127;-77
2023/01/19 06:58:09;;;;;;;19.92;2.35;;;;;;;;;;5096281;28;20044;-72
2023/01/19 07:00:35;;;;;;;17.55;2.42;;;;;;;;;;5091767;28;20402;-72
2023/01/19 07:03:01;;;;;;;23.25;3.53;;;;;;;;;;5092876;28;20067;-72
2023/01/19 07:05:27;;;;;;;24.15;2.35;;;;;;;;;;5101693;28;20116;-73
2023/01/19 07:07:54;;;;;;;24.88;2.50;;;;;;;;;;5104750;28;20036;-73
2023/01/19 07:10:21;;;;;;;23.92;2.33;;;;;;;;;;5103954;28;20384;-73
2023/01/19 07:12:47;;;;;;;16.48;2.28;;;;;;;;;;5094408;28;20105;-73
2023/01/19 07:15:15;;;;;;;18.83;3.00;;;;;;;;;;5103428;28;20076;-73
2023/01/19 07:17:41;;;;;;;23.25;3.50;;;;;;;;;;5102709;28;20055;-72
2023/01/19 07:20:10;;;;;;;28.27;3.25;;;;;;;;;;5093844;28;20100;-73
2023/01/19 07:22:36;;;;;;;21.50;2.97;;;;;;;;;;5092708;28;20052;-73
2023/01/19 07:25:02;;;;;;;15.75;3.05;;;;;;;;;;5096329;28;20122;-73
2023/01/19 07:27:28;;;;;;;31.67;2.92;;;;;;;;;;5094103;28;20047;-73
2023/01/19 07:29:54;;;;;;;16.45;2.33;;;;;;;;;;5095138;28;20455;-73
2023/01/19 07:32:21;;;;;;;21.40;2.95;;;;;;;;;;5093827;28;20055;-73
2023/01/19 07:34:47;;;;;;;24.33;3.65;;;;;;;;;;5104359;28;20027;-71
2023/01/19 07:37:13;;;;;;;24.52;2.40;;;;;;;;;;5092410;28;20046;-73
2023/01/19 07:39:39;;;;;;;21.35;2.28;;;;;;;;;;5102718;28;20640;-73
2023/01/19 07:42:06;;;;;;;21.95;2.30;;;;;;;;;;5104501;28;20526;-72
2023/01/19 07:44:32;;;;;;;17.92;2.83;;;;;;;;;;5094468;28;20199;-71
2023/01/19 07:46:59;;;;;;;15.88;2.08;;;;;;;;;;5093805;28;20470;-71
2023/01/19 07:49:25;;;;;;;12.50;2.15;;;;;;;;;;5103205;27;20082;-71
2023/01/19 07:51:51;;;;;;;28.80;3.58;;;;;;;;;;5094396;28;20051;-72
2023/01/19 07:54:17;;;;;;;17.75;2.47;;;;;;;;;;5103499;28;20039;-73
2023/01/19 07:56:43;;;;;;;13.07;2.92;;;;;;;;;;5103501;28;20047;-73
2023/01/19 07:59:10;;;;;;;23.15;3.05;;;;;;;;;;5096661;28;20146;-72
2023/01/19 08:01:36;;;;;;;18.95;3.88;;;;;;;;;;5102956;28;20051;-72
2023/01/19 08:04:02;;;;;;;31.70;3.70;;;;;;;;;;5103374;28;20170;-71
2023/01/19 08:06:33;;;;;;;31.63;3.72;;;;;;;;;;5094223;28;20055;-72
2023/01/19 08:08:59;;;;;;;26.90;4.07;;;;;;;;;;5102357;28;20119;-73
2023/01/19 08:11:25;;;;;;;26.42;3.10;;;;;;;;;;5103015;28;20186;-74
2023/01/19 08:13:51;;;;;;;24.83;3.30;;;;;;;;;;5102043;28;20039;-72
2023/01/19 08:16:18;;;;;;;25.17;3.50;;;;;;;;;;5101860;28;20039;-72
2023/01/19 08:18:44;;;;;;;24.75;3.10;;;;;;;;;;5104553;27;20049;-72
2023/01/19 08:21:10;;;;;;;23.42;3.67;;;;;;;;;;5101991;28;20040;-72
2023/01/19 08:23:36;;;;;;;19.05;3.30;;;;;;;;;;5098685;28;20554;-72
2023/01/19 08:26:16;;;;;;;31.50;3.92;;;;;;;;;;5103497;28;20082;-72
2023/01/19 08:28:42;;;;;;;25.65;3.50;;;;;;;;;;5095087;28;20062;-72
2023/01/19 08:31:09;;;;;;;25.23;3.35;;;;;;;;;;5102647;28;20043;-72
2023/01/19 08:33:35;;;;;;;24.40;3.67;;;;;;;;;;5104011;28;20067;-72
2023/01/19 08:36:01;;;;;;;21.90;2.63;;;;;;;;;;5102868;28;20046;-73
2023/01/19 08:38:27;;;;;;;17.55;3.05;;;;;;;;;;5091322;28;20044;-73
2023/01/19 08:40:54;;;;;;;17.83;2.40;;;;;;;;;;5100200;28;20100;-72
2023/01/19 08:43:20;;;;;;;17.67;3.03;;;;;;;;;;5086078;28;20126;-72
2023/01/19 08:45:50;;;;;;;15.82;2.63;;;;;;;;;;5086124;28;20051;-72
2023/01/19 08:48:17;;;;;;;14.25;2.55;;;;;;;;;;5090228;28;20121;-72
2023/01/19 08:50:46;;;;;;;20.80;2.60;;;;;;;;;;5088463;28;20082;-72
2023/01/19 08:53:12;;;;;;;14.48;1.70;;;;;;;;;;5086492;28;20032;-72
2023/01/19 08:55:39;;;;;;;13.43;2.17;;;;;;;;;;5083003;28;20039;-72
2023/01/19 08:58:07;;;;;;;14.02;2.50;;;;;;;;;;5082182;28;20046;-72
2023/01/19 09:00:36;;;;;;;17.95;2.50;;;;;;;;;;5066067;28;20032;-72
2023/01/19 09:03:03;;;;;;;20.48;2.20;;;;;;;;;;5065864;28;20098;-71
2023/01/19 09:05:34;;;;;;;14.57;2.58;;;;;;;;;;5084527;28;20066;-73
2023/01/19 09:08:01;;;;;;;13.57;1.77;;;;;;;;;;5049172;28;21486;-74
2023/01/19 09:10:30;;;;;;;13.27;1.67;;;;;;;;;;5063072;28;20083;-74
2023/01/19 09:12:57;;;;;;;7.93;1.50;;;;;;;;;;5082919;28;20048;-73
2023/01/19 09:15:23;;;;;;;8.18;1.25;;;;;;;;;;5087583;28;20031;-73
2023/01/19 09:17:51;;;;;;;9.45;1.27;;;;;;;;;;5086212;28;20131;-73
2023/01/19 09:20:18;;;;;;;7.78;1.80;;;;;;;;;;5069462;28;20676;-74
2023/01/19 09:22:44;;;;;;;6.63;1.08;;;;;;;;;;5089896;28;20062;-73
2023/01/19 09:25:10;;;;;;;9.00;1.75;;;;;;;;;;5085052;28;20498;-72
2023/01/19 09:27:36;;;;;;;7.82;1.60;;;;;;;;;;5070412;28;20382;-72
2023/01/19 09:30:03;;;;;;;10.45;1.75;;;;;;;;;;5070862;28;20745;-73
2023/01/19 09:32:29;;;;;;;10.90;1.88;;;;;;;;;;5066551;28;20115;-73
2023/01/19 09:34:56;;;;;;;13.18;2.40;;;;;;;;;;5087679;28;20124;-73
2023/01/19 09:37:22;;;;;;;16.23;3.83;;;;;;;;;;5069989;28;20051;-73
2023/01/19 09:39:48;;;;;;;10.05;2.22;;;;;;;;;;5068676;28;20075;-73
2023/01/19 09:42:20;;;;;;;13.40;2.42;;;;;;;;;;5094894;28;20455;-73
2023/01/19 09:44:47;;;;;;;13.32;2.22;;;;;;;;;;5095435;28;20518;-73
2023/01/19 09:47:15;;;;;;;12.10;2.30;;;;;;;;;;5105894;28;20048;-73
2023/01/19 09:49:43;;;;;;;12.27;2.58;;;;;;;;;;5107274;28;20120;-73
2023/01/19 09:52:11;;;;;;;13.02;1.98;;;;;;;;;;5106008;28;20040;-73
2023/01/19 09:54:43;;;;;;;10.00;2.20;;;;;;;;;;5098118;28;20050;-72
2023/01/19 09:57:10;;;;;;;24.48;3.03;;;;;;;;;;5084355;28;20043;-72
2023/01/19 09:59:37;;;;;;;16.73;2.17;;;;;;;;;;5081169;28;20035;-72
2023/01/19 10:02:06;;;;;;;19.95;3.20;;;;;;;;;;5096241;27;20643;-72
2023/01/19 10:04:34;;;;;;;24.42;2.83;;;;;;;;;;5098708;28;20048;-71
2023/01/19 10:07:15;;;;;;;13.70;2.60;;;;;;;;;;5098046;28;20161;-71
2023/01/19 10:09:42;;;;;;;18.83;2.78;;;;;;;;;;5103569;28;20039;-71
2023/01/19 10:12:15;;;;;;;21.42;3.22;;;;;;;;;;5104165;28;20042;-71
2023/01/19 10:14:50;;;;;;;16.42;2.35;;;;;;;;;;5105152;28;20077;-71
2023/01/19 10:17:22;;;;;;;12.52;1.77;;;;;;;;;;5105337;28;20413;-71
2023/01/19 10:19:50;;;;;;;15.88;2.47;;;;;;;;;;5091054;28;20047;-71
2023/01/19 10:22:21;;;;;;;18.65;2.53;;;;;;;;;;5098946;28;20035;-71
2023/01/19 10:24:51;;;;;;;17.55;2.22;;;;;;;;;;5106378;28;20348;-71
2023/01/19 10:27:18;;;;;;;16.45;2.58;;;;;;;;;;5106930;28;20164;-70
2023/01/19 10:29:45;;;;;;;16.92;2.42;;;;;;;;;;5106584;28;20044;-70
2023/01/19 10:32:13;;;;;;;16.85;2.47;;;;;;;;;;5096647;28;20075;-70
2023/01/19 10:34:40;;;;;;;14.52;2.22;;;;;;;;;;5104641;28;20044;-70
2023/01/19 10:37:25;;;;;;;10.43;1.95;;;;;;;;;;5103952;28;20051;-70
2023/01/19 10:39:52;;;;;;;12.73;1.88;;;;;;;;;;5104937;28;20084;-71
2023/01/19 10:42:18;;;;;;;8.55;1.90;;;;;;;;;;5099776;28;20051;-71
2023/01/19 10:44:45;;;;;;;13.27;1.80;;;;;;;;;;5105624;28;20386;-71
2023/01/19 10:47:15;;;;;;;13.25;1.63;;;;;;;;;;5099229;28;20040;-71
2023/01/19 10:49:42;;;;;;;12.98;1.70;;;;;;;;;;5093456;28;20085;-71
2023/01/19 10:52:18;;;;;;;11.93;1.63;;;;;;;;;;5103579;28;20043;-71
2023/01/19 10:54:47;;;;;;;22.42;2.00;;;;;;;;;;5095280;28;20101;-71
2023/01/19 10:57:20;;;;;;;13.57;1.27;;;;;;;;;;5103844;28;20317;-71
2023/01/19 10:59:49;;;;;;;16.20;1.73;;;;;;;;;;5099661;28;20035;-71
2023/01/19 11:02:34;;;;;;;11.10;1.65;;;;;;;;;;5102605;28;20047;-71
2023/01/19 11:05:03;;;;;;;19.17;1.77;;;;;;;;;;5104400;28;20032;-70
2023/01/19 11:07:31;;;;;;;7.35;1.45;;;;;;;;;;5105595;27;20059;-71
2023/01/19 11:10:16;;;;;;;6.20;1.40;;;;;;;;;;5103625;27;20084;-71
2023/01/19 11:12:42;;;;;;;;;;;;;;;;;;5105682;28;21120;-71
2023/01/19 11:15:20;;;;;;;10.88;1.75;;;;;;;;;;5091799;28;20022;-71
2023/01/19 11:17:47;;;;;;;12.13;1.33;;;;;;;;;;5102504;28;20122;-71
2023/01/19 11:20:19;;;;;;;9.05;1.45;;;;;;;;;;5102448;28;20088;-71
2023/01/19 11:22:45;;;;;;;13.05;1.77;;;;;;;;;;5094789;28;20050;-71
2023/01/19 11:25:20;;;;;;;14.93;1.40;;;;;;;;;;5103031;28;20174;-71
2023/01/19 11:27:50;;;;;;;13.38;1.10;;;;;;;;;;5101466;28;20062;-71
2023/01/19 11:30:18;;;;;;;12.52;1.70;;;;;;;;;;5103002;28;20127;-71
2023/01/19 11:32:47;;;;;;;11.20;1.70;;;;;;;;;;5103902;28;20047;-71
2023/01/19 11:35:30;;;;;;;11.35;1.52;;;;;;;;;;5103255;27;20470;-71
2023/01/19 11:38:11;;;;;;;13.00;1.60;;;;;;;;;;5095784;28;20048;-71
2023/01/19 11:40:38;;;;;;;14.70;1.95;;;;;;;;;;5096133;28;20052;-71
2023/01/19 11:43:04;;;;;;;9.98;1.92;;;;;;;;;;5102715;28;20566;-71
2023/01/19 11:45:32;;;;;;;28.17;1.65;;;;;;;;;;5102176;28;20467;-71
2023/01/19 11:48:02;;;;;;;13.27;1.88;;;;;;;;;;5101159;28;20141;-71
2023/01/19 11:50:38;;;;;;;10.18;1.48;;;;;;;;;;5102473;28;20062;-71
2023/01/19 11:53:10;;;;;;;10.00;1.75;;;;;;;;;;5101364;28;20043;-71
2023/01/19 11:55:40;;;;;;;8.55;1.67;;;;;;;;;;5096664;28;20485;-71
2023/01/19 11:58:09;;;;;;;13.70;2.33;;;;;;;;;;5105491;28;20487;-71
2023/01/19 12:00:38;;;;;;;12.43;1.60;;;;;;;;;;5103000;28;20039;-71
2023/01/19 12:03:12;;;;;;;6.20;1.45;;;;;;;;;;5104002;28;20100;-71
2023/01/19 12:05:40;;;;;;;8.52;1.92;;;;;;;;;;5098272;28;20122;-72
2023/01/19 12:08:11;;;;;;;9.93;1.70;;;;;;;;;;5102827;28;20062;-72
2023/01/19 12:10:40;;;;;;;9.05;1.35;;;;;;;;;;5104791;28;20079;-72
2023/01/19 12:13:12;;;;;;;7.90;1.75;;;;;;;;;;5103282;28;20108;-72
2023/01/19 12:15:41;;;;;;;13.90;1.70;;;;;;;;;;5105690;28;20051;-72
2023/01/19 12:18:12;;;;;;;11.48;1.48;;;;;;;;;;5105722;28;20040;-72
2023/01/19 12:20:43;;;;;;;14.35;1.38;;;;;;;;;;5094118;28;20056;-72
2023/01/19 12:23:10;;;;;;;11.82;1.50;;;;;;;;;;5093129;27;20104;-71
2023/01/19 12:25:59;;;;;;;10.57;1.50;;;;;;;;;;5098658;28;20462;-71
2023/01/19 12:28:28;;;;;;;10.75;1.73;;;;;;;;;;5104973;27;20059;-71
2023/01/19 12:30:55;;;;;;;13.32;1.83;;;;;;;;;;5100844;28;20086;-72
2023/01/19 12:33:25;;;;;;;11.75;1.50;;;;;;;;;;5105448;28;20042;-71
2023/01/19 12:35:57;;;;;;;18.80;2.10;;;;;;;;;;5101838;28;20556;-72
2023/01/19 12:38:33;;;;;;;9.52;1.40;;;;;;;;;;5101176;28;20044;-72
2023/01/19 12:41:15;;;;;;;10.20;1.52;;;;;;;;;;5105092;28;20063;-72
2023/01/19 12:43:41;;;;;;;13.85;1.73;;;;;;;;;;5096953;28;20051;-72
2023/01/19 12:46:19;;;;;;;6.93;1.38;;;;;;;;;;5099292;28;20506;-72
2023/01/19 12:48:45;;;;;;;8.48;2.28;;;;;;;;;;5100802;28;20155;-71
2023/01/19 12:51:22;;;;;;;13.90;2.20;;;;;;;;;;5096179;28;20425;-71
2023/01/19 12:53:51;;;;;;;11.48;2.45;;;;;;;;;;5102869;28;20040;-71
2023/01/19 12:56:17;;;;;;;12.38;1.80;;;;;;;;;;5101608;28;20044;-71
2023/01/19 12:58:48;;;;;;;16.27;3.25;;;;;;;;;;5103277;28;20052;-71
2023/01/19 13:01:17;;;;;;;17.55;2.05;;;;;;;;;;5102921;28;21357;-71
2023/01/19 13:03:43;;;;;;;7.30;1.75;;;;;;;;;;5092215;28;20126;-71
2023/01/19 13:06:09;;;;;;;13.77;2.05;;;;;;;;;;5092964;28;20055;-71
2023/01/19 13:08:54;;;;;;;21.90;2.00;;;;;;;;;;5089750;28;20051;-70
2023/01/19 13:11:21;;;;;;;10.48;1.85;;;;;;;;;;5094431;28;20172;-70
2023/01/19 13:13:48;;;;;;;15.68;3.28;;;;;;;;;;5100129;28;20050;-71
2023/01/19 13:16:21;;;;;;;10.52;2.05;;;;;;;;;;5096793;28;20035;-71
2023/01/19 13:18:50;;;;;;;10.60;2.40;;;;;;;;;;5097467;28;20459;-71
2023/01/19 13:21:27;;;;;;;12.15;1.83;;;;;;;;;;5108004;28;20031;-70
2023/01/19 13:23:55;;;;;;;13.32;1.67;;;;;;;;;;5108083;28;20069;-71
2023/01/19 13:26:22;;;;;;;9.65;1.85;;;;;;;;;;5112951;28;20036;-71
2023/01/19 13:28:50;;;;;;;9.40;2.20;;;;;;;;;;5107631;28;20078;-71
2023/01/19 13:31:16;;;;;;;12.02;1.55;;;;;;;;;;5111963;28;20035;-71
2023/01/19 13:33:50;;;;;;;8.30;1.40;;;;;;;;;;5098855;28;20348;-71
2023/01/19 13:36:29;;;;;;;5.20;0.98;;;;;;;;;;5099256;28;20387;-72
2023/01/19 13:38:56;;;;;;;4.70;1.42;;;;;;;;;;5109373;28;20044;-71
2023/01/19 13:41:24;;;;;;;3.13;0.70;;;;;;;;;;5112987;28;20168;-71
2023/01/19 13:43:54;;;;;;;6.15;0.90;;;;;;;;;;5110657;28;20055;-71
2023/01/19 13:46:21;;;;;;;4.15;0.60;;;;;;;;;;5109758;28;20058;-71
2023/01/19 13:48:56;;;;;;;6.30;1.20;;;;;;;;;;5100127;28;20461;-71
2023/01/19 13:51:22;;;;;;;10.02;1.20;;;;;;;;;;5104336;28;20487;-70
2023/01/19 13:54:00;;;;;;;8.70;1.17;;;;;;;;;;5108630;28;20365;-72
2023/01/19 13:56:27;;;;;;;8.82;1.85;;;;;;;;;;5089686;28;20407;-71
2023/01/19 13:58:57;;;;;;;7.70;1.10;;;;;;;;;;5091401;28;20510;-71
2023/01/19 14:01:24;;;;;;;7.93;1.27;;;;;;;;;;5090181;28;20134;-71
2023/01/19 14:03:51;;;;;;;8.45;1.55;;;;;;;;;;5109911;28;20059;-71
2023/01/19 14:06:35;;;;;;;7.35;1.58;;;;;;;;;;5100902;28;20135;-71
2023/01/19 14:09:05;;;;;;;6.85;1.60;;;;;;;;;;5086385;28;20043;-70
2023/01/19 14:11:31;;;;;;;9.23;1.42;;;;;;;;;;5076130;28;20056;-71
2023/01/19 14:13:57;;;;;;;12.40;2.13;;;;;;;;;;5090076;28;20139;-71
2023/01/19 14:16:24;;;;;;;8.82;1.30;;;;;;;;;;5094347;28;20418;-77
2023/01/19 14:19:04;;;;;;;7.80;1.95;;;;;;;;;;5068934;28;20395;-71
2023/01/19 14:21:40;;;;;;;8.10;1.50;;;;;;;;;;5069442;28;20062;-74
2023/01/19 14:24:07;;;;;;;5.18;1.27;;;;;;;;;;5091129;28;20054;-71
2023/01/19 14:26:37;;;;;;;9.70;1.35;;;;;;;;;;5090488;28;20093;-73
2023/01/19 14:29:09;;;;;;;6.38;1.10;;;;;;;;;;5091770;28;20051;-73
2023/01/19 14:31:43;;;;;;;8.35;1.05;;;;;;;;;;5092047;28;20126;-73
2023/01/19 14:34:28;;;;;;;7.82;1.50;;;;;;;;;;5072880;28;20117;-73
2023/01/19 14:36:54;;;;;;;7.75;1.00;;;;;;;;;;5085408;28;20413;-73
2023/01/19 14:39:23;;;;;;;6.22;0.98;;;;;;;;;;5085781;28;20069;-72
2023/01/19 14:41:51;;;;;;;8.95;1.10;;;;;;;;;;5091999;28;20119;-71
2023/01/19 14:44:24;;;;;;;5.13;0.90;;;;;;;;;;5108679;27;20051;-71
2023/01/19 14:46:50;;;;;;;5.72;1.08;;;;;;;;;;5108733;28;20042;-72
2023/01/19 14:49:20;;;;;;;4.45;0.88;;;;;;;;;;5107554;28;20051;-74
2023/01/19 14:51:47;;;;;;;8.27;1.00;;;;;;;;;;5107168;27;20086;-71